createdAt,value
2023-02-08T00:01:08.414Z,2.47
2023-02-08T00:03:36.428Z,3.00
2023-02-08T00:06:04.892Z,2.33
2023-02-08T00:08:32.987Z,2.87
2023-02-08T00:11:01.360Z,2.20
2023-02-08T00:13:30.815Z,2.47
2023-02-08T00:15:58.842Z,3.63
2023-02-08T00:18:26.750Z,2.83
2023-02-08T00:20:55.589Z,5.63
2023-02-08T00:23:23.437Z,4.30
2023-02-08T00:25:51.521Z,3.13
2023-02-08T00:28:20.335Z,3.20
2023-02-08T00:30:49.967Z,3.90
2023-02-08T00:33:17.851Z,3.60
2023-02-08T00:35:45.784Z,3.63
2023-02-08T00:38:13.670Z,4.90
2023-02-08T00:40:41.986Z,5.60
2023-02-08T00:43:10.074Z,9.13
2023-02-08T00:45:37.950Z,6.13
2023-02-08T00:48:07.260Z,3.97
2023-02-08T00:50:35.123Z,4.60
2023-02-08T00:53:03.018Z,5.30
2023-02-08T00:55:31.123Z,3.50
2023-02-08T00:57:58.996Z,6.40
2023-02-08T01:00:26.913Z,5.63
2023-02-08T01:02:54.806Z,6.20
2023-02-08T01:05:24.050Z,4.93
2023-02-08T01:07:51.926Z,3.70
2023-02-08T01:10:19.988Z,3.77
2023-02-08T01:12:47.876Z,6.30
2023-02-08T01:15:15.736Z,5.37
2023-02-08T01:17:44.130Z,4.50
2023-02-08T01:20:12.809Z,6.93
2023-02-08T01:22:42.036Z,7.80
2023-02-08T01:25:11.209Z,6.37
2023-02-08T01:27:39.120Z,5.63
2023-02-08T01:30:07.738Z,7.57
2023-02-08T01:32:35.645Z,4.10
2023-02-08T01:35:03.505Z,5.10
2023-02-08T01:37:31.409Z,4.83
2023-02-08T01:40:00.612Z,4.00
2023-02-08T01:42:28.635Z,7.53
2023-02-08T01:45:25.233Z,5.30
2023-02-08T01:47:57.509Z,5.23
2023-02-08T01:50:30.741Z,7.57
2023-02-08T01:52:59.255Z,6.90
2023-02-08T01:55:33.046Z,8.30
2023-02-08T01:58:04.750Z,6.60
2023-02-08T02:00:32.961Z,8.23
2023-02-08T02:03:03.822Z,5.93
2023-02-08T02:05:39.462Z,8.27
2023-02-08T02:08:08.658Z,7.10
2023-02-08T02:10:39.568Z,4.97
2023-02-08T02:13:10.382Z,7.63
2023-02-08T02:15:38.673Z,7.43
2023-02-08T02:18:09.016Z,5.50
2023-02-08T02:20:49.870Z,5.53
2023-02-08T02:23:36.909Z,6.60
2023-02-08T02:26:47.851Z,8.20
2023-02-08T02:29:33.452Z,8.57
2023-02-08T02:32:15.246Z,5.37
2023-02-08T02:34:48.527Z,5.73
2023-02-08T02:37:31.088Z,4.53
2023-02-08T02:40:08.406Z,9.20
2023-02-08T02:43:14.100Z,8.63
2023-02-08T02:45:50.722Z,6.30
2023-02-08T02:48:27.300Z,6.37
2023-02-08T02:51:01.083Z,9.90
2023-02-08T02:53:33.533Z,6.47
2023-02-08T02:56:06.078Z,11.23
2023-02-08T02:58:35.426Z,4.97
2023-02-08T03:01:03.328Z,5.20
2023-02-08T03:03:35.425Z,5.10
2023-02-08T03:06:07.634Z,5.23
2023-02-08T03:09:13.025Z,5.90
2023-02-08T03:11:46.820Z,5.97
2023-02-08T03:14:34.687Z,5.20
2023-02-08T03:17:23.172Z,6.10
2023-02-08T03:19:58.917Z,6.60
2023-02-08T03:22:35.982Z,6.00
2023-02-08T03:25:09.162Z,7.43
2023-02-08T03:27:41.485Z,7.87
2023-02-08T03:30:16.877Z,4.83
2023-02-08T03:32:48.556Z,4.60
2023-02-08T03:35:21.584Z,4.03
2023-02-08T03:37:54.284Z,8.00
2023-02-08T03:40:26.400Z,3.97
2023-02-08T03:42:57.455Z,7.10
2023-02-08T03:45:29.807Z,6.50
2023-02-08T03:48:01.257Z,6.93
2023-02-08T03:50:32.855Z,4.80
2023-02-08T03:53:01.991Z,7.33
2023-02-08T03:55:33.371Z,6.20
2023-02-08T03:58:07.192Z,8.87
2023-02-08T04:00:39.915Z,5.73
2023-02-08T04:03:14.293Z,5.20
2023-02-08T04:05:43.813Z,7.83
2023-02-08T04:08:11.687Z,5.30
2023-02-08T04:10:40.228Z,6.43
2023-02-08T04:13:08.305Z,4.17
2023-02-08T04:15:36.292Z,7.77
2023-02-08T04:18:04.216Z,4.60
2023-02-08T04:20:32.103Z,5.40
2023-02-08T04:23:01.345Z,6.80
2023-02-08T04:25:29.362Z,8.30
2023-02-08T04:27:57.277Z,5.85
2023-02-08T04:30:25.150Z,6.33
2023-02-08T04:32:53.064Z,5.15
2023-02-08T04:35:20.943Z,6.70
2023-02-08T04:37:48.950Z,8.53
2023-02-08T04:40:18.641Z,5.50
2023-02-08T04:42:46.549Z,5.47
2023-02-08T04:45:14.443Z,5.70
2023-02-08T04:47:42.346Z,6.00
2023-02-08T04:50:11.654Z,4.82
2023-02-08T04:52:39.536Z,7.82
2023-02-08T04:55:08.467Z,8.40
2023-02-08T04:57:37.706Z,8.03
2023-02-08T05:00:06.558Z,7.00
2023-02-08T05:02:34.452Z,6.10
2023-02-08T05:05:02.455Z,4.53
2023-02-08T05:07:30.364Z,5.40
2023-02-08T05:09:58.290Z,5.77
2023-02-08T05:12:26.236Z,4.50
2023-02-08T05:14:55.701Z,10.73
2023-02-08T05:17:23.674Z,7.47
2023-02-08T05:19:51.586Z,6.40
2023-02-08T05:22:19.516Z,6.38
2023-02-08T05:24:47.624Z,5.22
2023-02-08T05:27:15.536Z,7.30
2023-02-08T05:29:44.002Z,4.20
2023-02-08T05:32:13.653Z,4.87
2023-02-08T05:34:41.557Z,6.47
2023-02-08T05:37:09.491Z,7.30
2023-02-08T05:39:37.386Z,4.53
2023-02-08T05:42:05.291Z,6.47
2023-02-08T05:44:33.248Z,5.43
2023-02-08T05:47:01.908Z,5.07
2023-02-08T05:49:31.330Z,6.93
2023-02-08T05:51:59.281Z,4.33
2023-02-08T05:54:27.298Z,5.70
2023-02-08T05:56:55.199Z,8.50
2023-02-08T05:59:23.062Z,4.35
2023-02-08T06:01:50.959Z,4.72
2023-02-08T06:04:18.885Z,5.72
2023-02-08T06:06:48.203Z,5.38
2023-02-08T06:09:16.072Z,6.25
2023-02-08T06:11:44.052Z,8.30
2023-02-08T06:14:11.959Z,4.60
2023-02-08T06:16:39.884Z,4.80
2023-02-08T06:19:08.888Z,5.97
2023-02-08T06:21:36.813Z,6.22
2023-02-08T06:24:06.861Z,5.50
2023-02-08T06:26:35.152Z,5.32
2023-02-08T06:29:03.052Z,6.30
2023-02-08T06:31:31.044Z,4.70
2023-02-08T06:33:59.095Z,4.55
2023-02-08T06:36:27.084Z,6.15
2023-02-08T06:38:55.402Z,5.80
2023-02-08T06:41:24.679Z,12.05
2023-02-08T06:43:52.756Z,7.25
2023-02-08T06:46:20.840Z,6.27
2023-02-08T06:48:48.693Z,5.90
2023-02-08T06:51:16.567Z,7.80
2023-02-08T06:53:44.474Z,8.30
2023-02-08T06:56:12.346Z,7.32
2023-02-08T06:58:41.616Z,7.60
2023-02-08T07:01:13.298Z,6.03
2023-02-08T07:03:41.540Z,6.47
2023-02-08T07:06:13.929Z,6.20
2023-02-08T07:08:42.300Z,6.65
2023-02-08T07:11:10.661Z,6.17
2023-02-08T07:13:39.546Z,7.70
2023-02-08T07:16:10.937Z,5.03
2023-02-08T07:18:41.583Z,9.82
2023-02-08T07:21:11.378Z,7.47
2023-02-08T07:23:39.702Z,8.00
2023-02-08T07:26:09.574Z,9.02
2023-02-08T07:28:40.070Z,8.73
2023-02-08T07:31:10.377Z,8.20
2023-02-08T07:33:38.869Z,8.97
2023-02-08T07:36:07.677Z,7.57
2023-02-08T07:38:35.783Z,7.63
2023-02-08T07:41:04.638Z,7.10
2023-02-08T07:43:34.441Z,9.10
2023-02-08T07:46:07.179Z,6.90
2023-02-08T07:48:39.831Z,6.40
2023-02-08T07:51:08.775Z,10.03
2023-02-08T07:53:37.119Z,6.17
2023-02-08T07:56:05.585Z,8.27
2023-02-08T07:58:33.547Z,8.73
2023-02-08T08:01:09.522Z,7.23
2023-02-08T08:03:45.279Z,7.70
2023-02-08T08:06:13.183Z,9.00
2023-02-08T08:08:41.166Z,8.57
2023-02-08T08:11:09.088Z,8.73
2023-02-08T08:13:36.951Z,6.70
2023-02-08T08:16:04.996Z,9.03
2023-02-08T08:18:32.917Z,6.37
2023-02-08T08:21:02.177Z,7.93
2023-02-08T08:23:30.106Z,12.13
2023-02-08T08:25:58.006Z,7.87
2023-02-08T08:28:26.328Z,11.27
2023-02-08T08:30:54.424Z,8.00
2023-02-08T08:33:22.359Z,9.93
2023-02-08T08:35:50.330Z,11.20
2023-02-08T08:38:19.639Z,8.20
2023-02-08T08:40:47.517Z,11.30
2023-02-08T08:43:15.963Z,10.43
2023-02-08T08:45:43.852Z,8.90
2023-02-08T08:48:11.789Z,11.20
2023-02-08T08:50:40.703Z,8.90
2023-02-08T08:53:08.737Z,10.00
2023-02-08T08:55:37.973Z,10.53
2023-02-08T08:58:05.836Z,9.40
2023-02-08T09:00:33.705Z,8.13
2023-02-08T09:03:01.617Z,9.53
2023-02-08T09:05:29.598Z,9.07
2023-02-08T09:07:57.451Z,7.50
2023-02-08T09:10:25.324Z,11.37
2023-02-08T09:12:54.624Z,10.50
2023-02-08T09:15:22.517Z,12.60
2023-02-08T09:17:50.629Z,10.90
2023-02-08T09:20:18.675Z,13.10
2023-02-08T09:22:46.602Z,12.77
2023-02-08T09:25:14.573Z,9.20
2023-02-08T09:27:42.473Z,10.87
2023-02-08T09:30:12.724Z,14.47
2023-02-08T09:32:40.773Z,12.63
2023-02-08T09:35:09.086Z,15.60
2023-02-08T09:37:37.010Z,13.57
2023-02-08T09:40:05.385Z,9.47
2023-02-08T09:42:40.355Z,11.87
2023-02-08T09:45:31.001Z,10.83
2023-02-08T09:48:03.325Z,13.00
2023-02-08T09:50:35.023Z,13.00
2023-02-08T09:53:09.155Z,14.77
2023-02-08T09:55:40.715Z,14.53
2023-02-08T09:58:18.506Z,13.70
2023-02-08T10:00:50.823Z,15.00
2023-02-08T10:03:30.485Z,10.10
2023-02-08T10:05:58.468Z,13.27
2023-02-08T10:08:35.189Z,13.70
2023-02-08T10:11:11.801Z,13.93
2023-02-08T10:13:54.500Z,14.10
2023-02-08T10:16:45.575Z,19.03
2023-02-08T10:19:24.818Z,13.40
2023-02-08T10:22:05.482Z,14.73
2023-02-08T10:24:49.282Z,13.17
2023-02-08T10:27:18.789Z,14.63
2023-02-08T10:30:08.648Z,13.67
2023-02-08T10:33:02.935Z,14.93
2023-02-08T10:35:37.259Z,12.23
2023-02-08T10:38:37.142Z,11.57
2023-02-08T10:41:18.059Z,14.50
2023-02-08T10:43:49.720Z,14.27
2023-02-08T10:46:25.583Z,14.40
2023-02-08T10:49:09.041Z,13.73
2023-02-08T10:51:37.258Z,13.07
2023-02-08T10:54:05.482Z,14.73
2023-02-08T10:56:43.190Z,13.83
2023-02-08T10:59:21.033Z,12.57
2023-02-08T11:01:50.291Z,12.70
2023-02-08T11:04:19.823Z,13.23
2023-02-08T11:06:49.031Z,12.93
2023-02-08T11:09:25.297Z,12.63
2023-02-08T11:11:54.434Z,12.53
2023-02-08T11:14:34.959Z,14.13
2023-02-08T11:17:03.259Z,13.60
2023-02-08T11:19:42.466Z,14.13
2023-02-08T11:22:16.917Z,13.63
2023-02-08T11:24:50.399Z,13.60
2023-02-08T11:27:30.023Z,12.97
2023-02-08T11:30:21.356Z,16.37
2023-02-08T11:32:51.155Z,16.33
2023-02-08T11:35:24.179Z,16.70
2023-02-08T11:37:54.349Z,14.00
2023-02-08T11:40:26.421Z,16.13
2023-02-08T11:42:54.809Z,13.33
2023-02-08T11:45:25.896Z,15.40
2023-02-08T11:47:54.854Z,13.93
2023-02-08T11:50:31.481Z,15.60
2023-02-08T11:53:01.731Z,13.80
2023-02-08T11:55:32.144Z,13.67
2023-02-08T11:58:02.026Z,14.37
2023-02-08T12:00:32.045Z,14.50
2023-02-08T12:03:01.972Z,13.10
2023-02-08T12:05:45.204Z,15.03
2023-02-08T12:08:22.107Z,15.03
2023-02-08T12:11:03.749Z,14.27
2023-02-08T12:13:59.549Z,13.13
2023-02-08T12:16:44.064Z,15.87
2023-02-08T12:19:35.208Z,18.07
2023-02-08T12:22:10.499Z,11.50
2023-02-08T12:24:48.292Z,12.20
2023-02-08T12:27:28.278Z,13.47
2023-02-08T12:30:05.154Z,12.70
2023-02-08T12:33:01.257Z,12.37
2023-02-08T12:36:05.456Z,11.43
2023-02-08T12:39:25.990Z,13.73
2023-02-08T12:42:16.397Z,11.73
2023-02-08T12:45:03.733Z,13.53
2023-02-08T12:48:02.983Z,12.20
2023-02-08T12:50:37.880Z,12.83
2023-02-08T12:53:16.563Z,13.47
2023-02-08T12:55:47.180Z,12.77
2023-02-08T12:58:26.720Z,12.00
2023-02-08T13:00:57.805Z,10.93
2023-02-08T13:03:34.584Z,10.97
2023-02-08T13:06:07.918Z,11.10
2023-02-08T13:08:42.127Z,11.10
2023-02-08T13:11:20.431Z,16.93
2023-02-08T13:13:56.594Z,11.33
2023-02-08T13:16:29.406Z,14.00
2023-02-08T13:19:19.445Z,12.53
2023-02-08T13:21:47.791Z,12.17
2023-02-08T13:24:27.425Z,11.87
2023-02-08T13:26:56.723Z,9.40
2023-02-08T13:29:28.135Z,10.73
2023-02-08T13:32:02.642Z,11.37
2023-02-08T13:34:35.905Z,10.50
2023-02-08T13:37:16.542Z,13.53
2023-02-08T13:39:49.634Z,12.57
2023-02-08T13:42:24.697Z,13.60
2023-02-08T13:44:55.428Z,10.23
2023-02-08T13:47:26.929Z,10.17
2023-02-08T13:49:59.970Z,11.80
2023-02-08T13:52:50.927Z,10.13
2023-02-08T13:55:53.210Z,9.87
2023-02-08T13:59:01.324Z,10.20
2023-02-08T14:01:30.533Z,11.30
2023-02-08T14:04:31.844Z,12.20
2023-02-08T14:07:05.567Z,12.93
2023-02-08T14:09:47.278Z,11.13
2023-02-08T14:12:22.089Z,12.77
2023-02-08T14:15:24.058Z,11.33
2023-02-08T14:17:57.910Z,12.40
2023-02-08T14:20:30.978Z,14.97
2023-02-08T14:23:01.641Z,14.97
2023-02-08T14:25:39.587Z,14.47
2023-02-08T14:28:09.430Z,12.10
2023-02-08T14:30:42.166Z,11.47
2023-02-08T14:33:17.076Z,11.83
2023-02-08T14:35:55.303Z,11.30
2023-02-08T14:38:49.570Z,9.67
2023-02-08T14:41:49.304Z,13.63
2023-02-08T14:44:53.935Z,10.87
2023-02-08T14:48:00.606Z,11.00
2023-02-08T14:50:43.919Z,11.80
2023-02-08T14:53:22.396Z,15.57
2023-02-08T14:55:53.354Z,11.60
2023-02-08T14:58:30.632Z,12.67
2023-02-08T15:01:02.107Z,10.30
2023-02-08T15:03:33.073Z,9.73
2023-02-08T15:06:49.510Z,12.00
2023-02-08T15:09:21.595Z,11.83
2023-02-08T15:11:55.198Z,11.70
2023-02-08T15:14:23.812Z,14.03
2023-02-08T15:16:53.559Z,13.60
2023-02-08T15:19:26.895Z,11.50
2023-02-08T15:21:56.553Z,9.70
2023-02-08T15:24:29.820Z,11.47
2023-02-08T15:26:58.724Z,11.50
2023-02-08T15:29:42.770Z,11.27
2023-02-08T15:32:15.750Z,6.70
2023-02-08T15:34:44.635Z,13.30
2023-02-08T15:37:18.318Z,13.00
2023-02-08T15:39:49.992Z,11.60
2023-02-08T15:42:19.588Z,9.80
2023-02-08T15:44:48.422Z,8.70
2023-02-08T15:47:19.699Z,10.40
2023-02-08T15:49:50.812Z,11.00
2023-02-08T15:52:22.886Z,9.80
2023-02-08T15:54:51.438Z,12.53
2023-02-08T15:57:30.992Z,8.80
2023-02-08T15:59:59.855Z,8.47
2023-02-08T16:02:31.001Z,12.03
2023-02-08T16:05:00.015Z,7.83
2023-02-08T16:07:34.335Z,9.03
2023-02-08T16:10:02.729Z,9.17
2023-02-08T16:12:31.000Z,7.93
2023-02-08T16:14:59.037Z,6.43
2023-02-08T16:17:37.682Z,10.40
2023-02-08T16:20:25.996Z,11.80
2023-02-08T16:23:00.125Z,7.60
2023-02-08T16:25:44.260Z,7.63
2023-02-08T16:28:28.645Z,6.70
2023-02-08T16:30:57.524Z,8.67
2023-02-08T16:33:26.004Z,10.97
2023-02-08T16:36:01.620Z,5.73
2023-02-08T16:38:33.766Z,6.80
2023-02-08T16:41:12.885Z,4.73
2023-02-08T16:43:43.886Z,6.93
2023-02-08T16:46:24.634Z,8.00
2023-02-08T16:48:54.898Z,6.07
2023-02-08T16:51:26.086Z,6.63
2023-02-08T16:53:58.110Z,6.23
2023-02-08T16:56:26.249Z,8.83
2023-02-08T16:58:54.232Z,7.80
2023-02-08T17:01:23.957Z,9.80
2023-02-08T17:03:52.991Z,8.53
2023-02-08T17:06:30.430Z,7.97
2023-02-08T17:09:01.033Z,6.50
2023-02-08T17:11:29.978Z,11.80
2023-02-08T17:13:58.364Z,6.50
2023-02-08T17:16:28.765Z,4.33
2023-02-08T17:18:58.299Z,8.37
2023-02-08T17:21:27.298Z,5.60
2023-02-08T17:23:55.230Z,7.57
2023-02-08T17:26:27.484Z,9.73
2023-02-08T17:28:55.808Z,7.30
2023-02-08T17:31:24.689Z,6.67
2023-02-08T17:33:52.779Z,8.30
2023-02-08T17:36:20.676Z,7.00
2023-02-08T17:38:48.651Z,4.77
2023-02-08T17:41:19.552Z,6.83
2023-02-08T17:43:52.225Z,7.00
2023-02-08T17:46:22.760Z,5.87
2023-02-08T17:48:50.760Z,7.87
2023-02-08T17:51:21.121Z,5.27
2023-02-08T17:53:49.172Z,9.57
2023-02-08T17:56:18.605Z,8.57
2023-02-08T17:58:51.365Z,9.33
2023-02-08T18:01:23.687Z,8.87
2023-02-08T18:03:52.452Z,6.70
2023-02-08T18:06:23.004Z,6.00
2023-02-08T18:08:51.013Z,8.10
2023-02-08T18:11:20.853Z,5.80
2023-02-08T18:13:52.104Z,8.07
2023-02-08T18:16:22.258Z,5.03
2023-02-08T18:18:50.261Z,6.90
2023-02-08T18:21:20.613Z,6.30
2023-02-08T18:23:50.022Z,6.07
2023-02-08T18:26:19.982Z,8.73
2023-02-08T18:28:48.300Z,4.90
2023-02-08T18:31:20.151Z,10.47
2023-02-08T18:33:49.728Z,7.37
2023-02-08T18:36:18.438Z,6.50
2023-02-08T18:38:48.297Z,8.07
2023-02-08T18:41:21.188Z,7.53
2023-02-08T18:43:49.908Z,8.40
2023-02-08T18:46:21.025Z,9.40
2023-02-08T18:48:50.512Z,6.50
2023-02-08T18:51:19.933Z,7.93
2023-02-08T18:53:50.900Z,9.23
2023-02-08T18:56:22.913Z,8.13
2023-02-08T18:58:51.711Z,9.83
2023-02-08T19:01:23.894Z,7.20
2023-02-08T19:03:52.184Z,6.73
2023-02-08T19:06:22.549Z,10.43
2023-02-08T19:08:52.432Z,5.80
2023-02-08T19:11:22.736Z,8.97
2023-02-08T19:13:51.422Z,7.50
2023-02-08T19:16:22.078Z,12.30
2023-02-08T19:18:50.472Z,12.77
2023-02-08T19:21:19.152Z,11.60
2023-02-08T19:23:47.715Z,15.40
2023-02-08T19:26:18.170Z,9.10
2023-02-08T19:28:46.246Z,14.17
2023-02-08T19:31:16.597Z,15.87
2023-02-08T19:33:48.282Z,12.00
2023-02-08T19:36:18.849Z,11.80
2023-02-08T19:38:47.194Z,19.60
2023-02-08T19:41:17.582Z,12.73
2023-02-08T19:43:45.629Z,14.10
2023-02-08T19:46:15.777Z,13.53
2023-02-08T19:48:45.110Z,12.20
2023-02-08T19:51:13.285Z,14.93
2023-02-08T19:53:41.230Z,17.13
2023-02-08T19:56:11.992Z,13.90
2023-02-08T19:58:40.078Z,10.30
2023-02-08T20:01:09.220Z,10.73
2023-02-08T20:03:37.489Z,13.63
2023-02-08T20:06:13.734Z,12.53
2023-02-08T20:08:41.567Z,16.23
2023-02-08T20:11:17.519Z,15.67
2023-02-08T20:13:45.571Z,16.70
2023-02-08T20:16:14.664Z,13.70
2023-02-08T20:18:42.758Z,12.07
2023-02-08T20:21:12.617Z,16.50
2023-02-08T20:23:40.669Z,13.17
2023-02-08T20:26:11.227Z,17.80
2023-02-08T20:28:41.561Z,15.80
2023-02-08T20:31:10.104Z,14.00
2023-02-08T20:33:38.514Z,15.93
2023-02-08T20:36:09.425Z,16.03
2023-02-08T20:38:40.043Z,17.67
2023-02-08T20:41:12.169Z,15.40
2023-02-08T20:43:43.598Z,15.00
2023-02-08T20:46:19.604Z,13.73
2023-02-08T20:48:48.707Z,14.30
2023-02-08T20:51:20.831Z,16.00
2023-02-08T20:53:51.462Z,14.83
2023-02-08T20:56:22.983Z,11.63
2023-02-08T20:58:54.296Z,10.60
2023-02-08T21:01:25.541Z,12.80
2023-02-08T21:03:55.214Z,12.70
2023-02-08T21:06:26.453Z,7.77
2023-02-08T21:08:56.569Z,10.90
2023-02-08T21:11:26.223Z,10.23
2023-02-08T21:13:54.263Z,9.90
2023-02-08T21:16:22.212Z,11.63
2023-02-08T21:18:50.240Z,9.43
2023-02-08T21:21:19.148Z,10.40
2023-02-08T21:23:47.661Z,9.30
2023-02-08T21:26:19.399Z,8.67
2023-02-08T21:28:47.986Z,9.40
2023-02-08T21:31:19.639Z,14.80
2023-02-08T21:33:47.813Z,8.27
2023-02-08T21:36:18.042Z,9.77
2023-02-08T21:38:46.202Z,12.67
2023-02-08T21:41:20.130Z,10.77
2023-02-08T21:43:48.852Z,12.07
2023-02-08T21:46:17.923Z,12.90
2023-02-08T21:49:04.275Z,9.73
2023-02-08T21:51:50.310Z,9.67
2023-02-08T21:54:37.634Z,10.07
2023-02-08T21:57:08.942Z,9.73
2023-02-08T21:59:37.748Z,8.47
2023-02-08T22:02:06.724Z,12.33
2023-02-08T22:04:34.722Z,12.10
2023-02-08T22:07:04.405Z,11.43
2023-02-08T22:09:32.383Z,11.57
2023-02-08T22:12:00.387Z,10.40
2023-02-08T22:14:29.610Z,12.40
2023-02-08T22:16:57.562Z,10.90
2023-02-08T22:19:25.443Z,9.43
2023-02-08T22:21:53.427Z,11.73
2023-02-08T22:24:21.299Z,12.47
2023-02-08T22:26:49.227Z,12.13
2023-02-08T22:29:17.936Z,10.80
2023-02-08T22:31:47.388Z,7.83
2023-02-08T22:34:15.337Z,11.20
2023-02-08T22:36:43.272Z,15.53
2023-02-08T22:39:11.177Z,11.43
2023-02-08T22:41:39.193Z,9.70
2023-02-08T22:44:07.271Z,10.97
2023-02-08T22:46:35.251Z,12.03
2023-02-08T22:49:04.634Z,10.30
2023-02-08T22:51:32.598Z,7.87
2023-02-08T22:54:00.470Z,13.80
2023-02-08T22:56:29.869Z,14.10
2023-02-08T22:58:59.543Z,15.90
2023-02-08T23:01:28.106Z,18.30
2023-02-08T23:03:56.054Z,15.70
2023-02-08T23:06:27.919Z,12.53
2023-02-08T23:08:56.314Z,16.90
2023-02-08T23:11:24.404Z,15.83
2023-02-08T23:13:52.491Z,14.87
2023-02-08T23:16:21.014Z,12.80
2023-02-08T23:18:49.177Z,15.53
2023-02-08T23:21:20.501Z,14.63
2023-02-08T23:23:49.932Z,17.03
2023-02-08T23:26:20.423Z,13.00
2023-02-08T23:28:50.564Z,15.03
2023-02-08T23:31:20.186Z,10.10
2023-02-08T23:33:48.157Z,11.03
2023-02-08T23:36:18.978Z,12.03
2023-02-08T23:38:48.706Z,13.67
2023-02-08T23:41:18.983Z,10.10
2023-02-08T23:43:47.227Z,12.63
2023-02-08T23:46:17.661Z,13.67
2023-02-08T23:48:47.592Z,12.60
2023-02-08T23:51:17.213Z,12.53
2023-02-08T23:53:45.442Z,10.13
2023-02-08T23:56:17.429Z,11.37
2023-02-08T23:58:47.215Z,8.80
